Time;durP1;ratioP1;P1;durP2;ratioP2;P2;SDS_P1;SDS_P2;PMS_P1;PMS_P2;Temp;Humidity;BMP_temperature;BMP_pressure;BME280_temperature;BME280_humidity;BME280_pressure;Samples;Min_cycle;Max_cycle;Signal;HPM_P1;HPM_P2
2021/03/11 00:00:26;;;;;;;12.80;7.35;;;;;12.50;99954.00;;;;5084609;28;20652;-80
2021/03/11 00:02:53;;;;;;;10.88;6.45;;;;;12.50;99950.00;;;;5068546;28;20207;-79
2021/03/11 00:05:21;;;;;;;10.50;6.78;;;;;12.50;99937.00;;;;5067426;28;20199;-79
2021/03/11 00:07:48;;;;;;;9.95;6.38;;;;;12.60;99941.00;;;;5086313;28;20271;-79
2021/03/11 00:10:15;;;;;;;11.45;7.05;;;;;12.60;99936.00;;;;5089808;28;20244;-79
2021/03/11 00:12:44;;;;;;;10.23;6.60;;;;;12.60;99931.00;;;;5073050;28;20240;-79
2021/03/11 00:15:13;;;;;;;11.80;6.63;;;;;12.60;99923.00;;;;5083518;28;20237;-80
2021/03/11 00:17:40;;;;;;;11.25;7.13;;;;;12.60;99914.00;;;;5071356;28;20187;-79
2021/03/11 00:20:09;;;;;;;12.85;6.72;;;;;12.60;99904.00;;;;5085691;28;20205;-79
2021/03/11 00:22:37;;;;;;;13.88;7.95;;;;;12.60;99895.00;;;;5082113;28;20197;-79
2021/03/11 00:25:05;;;;;;;15.48;9.35;;;;;12.60;99890.00;;;;5081473;28;20195;-79
2021/03/11 00:27:32;;;;;;;11.07;7.55;;;;;12.60;99868.00;;;;5081967;28;20230;-80
2021/03/11 00:29:58;;;;;;;10.35;6.95;;;;;12.70;99859.00;;;;5088743;28;20213;-79
2021/03/11 00:32:25;;;;;;;10.80;7.05;;;;;12.70;99862.00;;;;5092344;28;20604;-79
2021/03/11 00:34:52;;;;;;;9.50;6.28;;;;;12.70;99856.00;;;;5090659;28;20190;-79
2021/03/11 00:37:19;;;;;;;10.93;6.38;;;;;12.70;99830.00;;;;5087763;28;20259;-80
2021/03/11 00:39:46;;;;;;;8.18;5.22;;;;;12.70;99838.00;;;;5084825;28;20199;-79
2021/03/11 00:42:13;;;;;;;9.57;6.63;;;;;12.80;99829.00;;;;5081864;28;20263;-79
2021/03/11 00:44:40;;;;;;;11.52;7.65;;;;;12.80;99824.00;;;;5090097;28;20201;-79
2021/03/11 00:47:07;;;;;;;11.85;5.68;;;;;12.80;99827.00;;;;5091089;28;20225;-79
2021/03/11 00:49:34;;;;;;;10.45;6.28;;;;;12.80;99819.00;;;;5090420;28;20259;-79
2021/03/11 00:52:01;;;;;;;8.35;5.78;;;;;12.80;99831.00;;;;5081054;28;20668;-78
2021/03/11 00:54:28;;;;;;;8.88;5.68;;;;;12.90;99811.00;;;;5070653;28;20210;-79
2021/03/11 00:56:56;;;;;;;6.53;4.93;;;;;12.90;99812.00;;;;5088898;28;20202;-79
2021/03/11 00:59:23;;;;;;;9.13;6.80;;;;;12.90;99809.00;;;;5087095;28;20201;-79
2021/03/11 01:01:49;;;;;;;9.15;6.40;;;;;12.90;99817.00;;;;5084326;28;20209;-80
2021/03/11 01:04:16;;;;;;;6.72;4.60;;;;;12.90;99795.00;;;;5087611;28;20471;-80
2021/03/11 01:06:43;;;;;;;9.52;5.93;;;;;13.00;99782.00;;;;5076791;28;20230;-80
2021/03/11 01:09:10;;;;;;;8.75;6.43;;;;;13.00;99787.00;;;;5074541;28;20187;-80
2021/03/11 01:11:37;;;;;;;7.78;5.22;;;;;13.00;99782.00;;;;5083207;28;20194;-80
2021/03/11 01:14:04;;;;;;;7.82;5.35;;;;;13.00;99760.00;;;;5073913;28;20203;-80
2021/03/11 01:16:31;;;;;;;8.68;5.85;;;;;13.10;99755.00;;;;5083209;28;20205;-80
2021/03/11 01:18:58;;;;;;;9.23;5.88;;;;;13.10;99763.00;;;;5069957;28;20203;-80
2021/03/11 01:21:25;;;;;;;8.05;5.30;;;;;13.10;99743.00;;;;5069871;28;20213;-80
2021/03/11 01:23:51;;;;;;;9.10;5.63;;;;;13.10;99749.00;;;;5089327;28;20209;-80
2021/03/11 01:26:18;;;;;;;8.82;6.05;;;;;13.10;99744.00;;;;5074038;28;20221;-79
2021/03/11 01:28:45;;;;;;;8.40;6.18;;;;;13.10;99723.00;;;;5081715;28;20190;-79
2021/03/11 01:31:13;;;;;;;7.47;5.20;;;;;13.10;99713.00;;;;5088130;28;20197;-80
2021/03/11 01:33:39;;;;;;;8.38;5.32;;;;;13.10;99697.00;;;;5089950;28;20206;-80
2021/03/11 01:36:07;;;;;;;8.52;5.93;;;;;13.10;99696.00;;;;5086256;28;20202;-79
2021/03/11 01:38:34;;;;;;;8.32;5.70;;;;;13.10;99687.00;;;;5090022;28;20209;-79
2021/03/11 01:41:01;;;;;;;9.45;6.32;;;;;13.20;99701.00;;;;5084888;28;20209;-79
2021/03/11 01:43:27;;;;;;;10.02;5.40;;;;;13.20;99690.00;;;;5088070;28;20194;-79
2021/03/11 01:45:54;;;;;;;9.38;6.13;;;;;13.20;99683.00;;;;5087272;28;20667;-79
2021/03/11 01:48:22;;;;;;;8.07;5.65;;;;;13.20;99673.00;;;;5082646;28;20215;-80
2021/03/11 01:50:48;;;;;;;9.13;6.20;;;;;13.20;99646.00;;;;5081468;28;20645;-79
2021/03/11 01:53:16;;;;;;;7.30;5.05;;;;;13.20;99658.00;;;;5088347;28;20251;-79
2021/03/11 01:55:43;;;;;;;7.35;5.30;;;;;13.20;99644.00;;;;5082815;28;20252;-80
2021/03/11 01:58:10;;;;;;;9.15;5.88;;;;;13.20;99642.00;;;;5082531;28;20202;-79
2021/03/11 02:00:37;;;;;;;9.43;5.68;;;;;13.20;99622.00;;;;5070914;28;20195;-80
2021/03/11 02:03:05;;;;;;;8.63;5.70;;;;;13.20;99601.00;;;;5075186;28;20194;-79
2021/03/11 02:05:33;;;;;;;8.10;5.80;;;;;13.30;99626.00;;;;5068905;28;20203;-80
2021/03/11 02:07:59;;;;;;;7.43;5.82;;;;;13.30;99596.00;;;;5085543;28;20287;-79
2021/03/11 02:10:27;;;;;;;7.18;5.25;;;;;13.30;99613.00;;;;5085110;28;20247;-80
2021/03/11 02:13:13;;;;;;;6.78;4.85;;;;;13.20;99616.00;;;;5080441;28;20199;-80
2021/03/11 02:15:46;;;;;;;8.00;5.15;;;;;13.30;99592.00;;;;5073516;28;20277;-79
2021/03/11 02:18:18;;;;;;;7.03;4.03;;;;;13.30;99586.00;;;;5085760;28;20198;-79
2021/03/11 02:20:54;;;;;;;11.45;5.60;;;;;13.30;99579.00;;;;5087441;28;20202;-79
2021/03/11 02:23:47;;;;;;;7.20;5.22;;;;;13.30;99565.00;;;;5077437;28;20194;-79
2021/03/11 02:26:40;;;;;;;7.05;4.57;;;;;13.30;99573.00;;;;5075939;28;20242;-79
2021/03/11 02:29:11;;;;;;;6.63;4.22;;;;;13.40;99563.00;;;;5087436;28;20205;-79
2021/03/11 02:31:40;;;;;;;5.07;4.38;;;;;13.40;99564.00;;;;5088596;28;21243;-79
2021/03/11 02:34:10;;;;;;;5.35;3.45;;;;;13.50;99556.00;;;;5089356;28;20209;-79
2021/03/11 02:36:38;;;;;;;7.70;4.60;;;;;13.50;99560.00;;;;5078839;28;20625;-79
2021/03/11 02:39:07;;;;;;;6.43;4.55;;;;;13.50;99549.00;;;;5080526;28;20194;-79
2021/03/11 02:41:35;;;;;;;5.47;3.72;;;;;13.50;99531.00;;;;5081483;28;20198;-78
2021/03/11 02:44:03;;;;;;;7.15;4.03;;;;;13.50;99531.00;;;;5085549;28;20191;-79
2021/03/11 02:46:31;;;;;;;6.60;4.57;;;;;13.50;99525.00;;;;5080818;28;20815;-78
2021/03/11 02:48:58;;;;;;;8.10;5.07;;;;;13.60;99502.00;;;;5068673;28;20664;-78
2021/03/11 02:51:25;;;;;;;5.70;3.83;;;;;13.60;99511.00;;;;5070054;28;20228;-79
2021/03/11 02:53:53;;;;;;;4.43;3.33;;;;;13.60;99510.00;;;;5087374;28;20198;-79
2021/03/11 02:56:20;;;;;;;6.75;4.65;;;;;13.60;99508.00;;;;5076408;28;20205;-80
2021/03/11 02:58:48;;;;;;;5.57;4.45;;;;;13.60;99504.00;;;;5084840;28;20198;-79
2021/03/11 03:01:16;;;;;;;6.30;4.22;;;;;13.60;99510.00;;;;5079244;28;20700;-79
2021/03/11 03:03:45;;;;;;;5.93;4.43;;;;;13.60;99526.00;;;;5068618;28;20199;-80
2021/03/11 03:06:12;;;;;;;5.70;4.45;;;;;13.60;99504.00;;;;5075578;28;20675;-80
2021/03/11 03:08:42;;;;;;;5.18;4.28;;;;;13.60;99513.00;;;;5077698;28;20202;-80
2021/03/11 03:11:10;;;;;;;5.53;3.90;;;;;13.60;99499.00;;;;5071134;28;20551;-79
2021/03/11 03:13:37;;;;;;;6.53;4.88;;;;;13.60;99501.00;;;;5086671;28;20205;-79
2021/03/11 03:16:06;;;;;;;6.00;4.22;;;;;13.70;99495.00;;;;5090768;28;20213;-79
2021/03/11 03:18:34;;;;;;;4.35;3.42;;;;;13.70;99492.00;;;;5087634;28;20198;-79
2021/03/11 03:21:05;;;;;;;5.55;3.95;;;;;13.60;99492.00;;;;5090825;28;20247;-78
2021/03/11 03:23:33;;;;;;;6.05;4.57;;;;;13.70;99462.00;;;;5090202;28;20206;-79
2021/03/11 03:26:00;;;;;;;5.93;4.50;;;;;13.70;99463.00;;;;5087711;28;20201;-80
2021/03/11 03:28:27;;;;;;;6.00;4.72;;;;;13.70;99461.00;;;;5079969;28;20238;-79
2021/03/11 03:30:54;;;;;;;6.25;4.80;;;;;13.70;99461.00;;;;5077158;28;20202;-79
2021/03/11 03:33:21;;;;;;;4.47;3.80;;;;;13.70;99457.00;;;;5076269;28;20198;-79
2021/03/11 03:35:48;;;;;;;6.55;4.53;;;;;13.70;99444.00;;;;5078213;28;20887;-79
2021/03/11 03:38:16;;;;;;;6.03;4.38;;;;;13.70;99450.00;;;;5079236;28;20213;-78
2021/03/11 03:40:43;;;;;;;6.43;4.30;;;;;13.70;99443.00;;;;5075985;28;20265;-79
2021/03/11 03:43:13;;;;;;;6.28;4.78;;;;;13.70;99430.00;;;;5079347;28;20202;-80
2021/03/11 03:45:42;;;;;;;5.45;3.90;;;;;13.80;99424.00;;;;5085266;28;20209;-78
2021/03/11 03:48:14;;;;;;;5.93;4.65;;;;;13.80;99423.00;;;;5086251;28;20323;-80
2021/03/11 03:50:45;;;;;;;5.90;4.15;;;;;13.80;99430.00;;;;5081985;28;20194;-78
2021/03/11 03:53:19;;;;;;;5.38;4.10;;;;;13.80;99432.00;;;;5094474;28;20194;-78
2021/03/11 03:55:50;;;;;;;6.80;5.28;;;;;13.80;99421.00;;;;5089079;28;20255;-79
2021/03/11 03:58:17;;;;;;;7.15;4.85;;;;;13.90;99413.00;;;;5080565;28;20190;-78
2021/03/11 04:00:45;;;;;;;6.82;5.00;;;;;13.90;99410.00;;;;5083496;28;20210;-78
2021/03/11 04:03:12;;;;;;;6.25;4.97;;;;;13.90;99412.00;;;;5090552;28;20206;-78
2021/03/11 04:05:39;;;;;;;5.55;4.13;;;;;13.90;99402.00;;;;5088761;28;20203;-78
2021/03/11 04:08:07;;;;;;;7.47;5.05;;;;;14.00;99402.00;;;;5074414;28;20215;-78
2021/03/11 04:10:35;;;;;;;6.97;4.90;;;;;14.00;99394.00;;;;5087015;28;20555;-78
2021/03/11 04:13:02;;;;;;;5.38;4.03;;;;;14.00;99377.00;;;;5092281;28;20213;-78
2021/03/11 04:15:29;;;;;;;7.45;4.75;;;;;14.00;99373.00;;;;5091420;28;20260;-79
2021/03/11 04:17:56;;;;;;;6.15;4.45;;;;;14.00;99374.00;;;;5073039;28;20206;-79
2021/03/11 04:20:23;;;;;;;6.20;4.47;;;;;14.10;99375.00;;;;5073453;28;20199;-79
2021/03/11 04:22:51;;;;;;;7.03;5.10;;;;;14.10;99373.00;;;;5086731;28;20405;-78
2021/03/11 04:25:18;;;;;;;6.40;4.70;;;;;14.10;99364.00;;;;5080763;28;20190;-78
2021/03/11 04:27:46;;;;;;;6.95;4.95;;;;;14.20;99366.00;;;;5090582;28;20325;-79
2021/03/11 04:30:14;;;;;;;7.43;4.53;;;;;14.20;99349.00;;;;5092885;28;20197;-78
2021/03/11 04:32:41;;;;;;;6.75;4.97;;;;;14.20;99345.00;;;;5091287;28;20267;-79
2021/03/11 04:35:09;;;;;;;5.05;4.07;;;;;14.20;99351.00;;;;5092030;28;20757;-78
2021/03/11 04:37:38;;;;;;;6.35;4.38;;;;;14.20;99354.00;;;;5092234;28;20210;-78
2021/03/11 04:40:06;;;;;;;6.97;4.93;;;;;14.30;99346.00;;;;5091899;28;20207;-79
2021/03/11 04:42:34;;;;;;;5.97;4.65;;;;;14.30;99326.00;;;;5091143;28;20189;-78
2021/03/11 04:45:03;;;;;;;8.15;5.80;;;;;14.30;99335.00;;;;5092564;28;20781;-78
2021/03/11 04:47:31;;;;;;;6.75;4.85;;;;;14.30;99322.00;;;;5092208;28;20283;-78
2021/03/11 04:49:59;;;;;;;5.50;4.53;;;;;14.30;99321.00;;;;5084722;28;20678;-79
2021/03/11 04:52:27;;;;;;;6.32;4.55;;;;;14.40;99320.00;;;;5072700;28;20612;-79
2021/03/11 04:54:54;;;;;;;5.43;4.05;;;;;14.40;99321.00;;;;5088430;28;20191;-79
2021/03/11 04:57:21;;;;;;;8.57;5.28;;;;;14.40;99318.00;;;;5088797;28;20210;-79
2021/03/11 04:59:48;;;;;;;6.57;5.15;;;;;14.40;99309.00;;;;5071482;28;20899;-78
2021/03/11 05:02:16;;;;;;;8.73;5.07;;;;;14.50;99325.00;;;;5087480;28;20209;-79
2021/03/11 05:04:43;;;;;;;8.15;5.82;;;;;14.50;99294.00;;;;5076556;28;20203;-79
2021/03/11 05:07:13;;;;;;;7.93;4.65;;;;;14.50;99308.00;;;;5071287;28;20238;-79
2021/03/11 05:09:40;;;;;;;5.68;4.15;;;;;14.50;99295.00;;;;5077758;28;20260;-79
2021/03/11 05:12:08;;;;;;;5.93;4.10;;;;;14.60;99295.00;;;;5082574;28;20198;-79
2021/03/11 05:14:34;;;;;;;6.90;4.93;;;;;14.60;99285.00;;;;5070462;28;20195;-79
2021/03/11 05:17:01;;;;;;;6.85;4.38;;;;;14.60;99269.00;;;;5085466;28;20197;-78
2021/03/11 05:19:29;;;;;;;7.47;4.88;;;;;14.60;99278.00;;;;5081690;28;20190;-78
2021/03/11 05:21:55;;;;;;;5.95;4.10;;;;;14.70;99245.00;;;;5090114;28;20202;-80
2021/03/11 05:24:22;;;;;;;6.22;4.57;;;;;14.60;99270.00;;;;5078745;28;20204;-79
2021/03/11 05:26:49;;;;;;;7.03;4.65;;;;;14.70;99266.00;;;;5089129;28;20599;-78
2021/03/11 05:29:16;;;;;;;9.43;6.05;;;;;14.70;99271.00;;;;5089789;28;20205;-79
2021/03/11 05:31:42;;;;;;;7.38;5.65;;;;;14.70;99256.00;;;;5090778;28;20198;-79
2021/03/11 05:34:09;;;;;;;7.22;4.57;;;;;14.70;99250.00;;;;5079784;28;20206;-79
2021/03/11 05:36:36;;;;;;;5.63;4.40;;;;;14.70;99258.00;;;;5082133;28;20680;-79
2021/03/11 05:39:05;;;;;;;5.93;4.18;;;;;14.70;99246.00;;;;5080491;28;20710;-79
2021/03/11 05:41:36;;;;;;;6.03;4.18;;;;;14.70;99234.00;;;;5084516;28;20271;-78
2021/03/11 05:44:03;;;;;;;7.35;4.57;;;;;14.70;99231.00;;;;5088099;28;20699;-78
2021/03/11 05:46:32;;;;;;;5.65;4.25;;;;;14.70;99233.00;;;;5073915;28;20223;-78
2021/03/11 05:48:59;;;;;;;5.90;4.55;;;;;14.70;99232.00;;;;5086094;28;20247;-78
2021/03/11 05:51:29;;;;;;;7.07;4.40;;;;;14.70;99216.00;;;;5093718;28;20212;-78
2021/03/11 05:53:57;;;;;;;5.18;3.75;;;;;14.70;99211.00;;;;5091922;28;20224;-78
2021/03/11 05:56:24;;;;;;;6.55;4.70;;;;;14.80;99210.00;;;;5080103;28;20203;-79
2021/03/11 05:58:51;;;;;;;5.68;3.88;;;;;14.80;99205.00;;;;5083881;28;20210;-78
2021/03/11 06:01:19;;;;;;;5.25;3.53;;;;;14.80;99198.00;;;;5080502;28;20710;-78
2021/03/11 06:03:49;;;;;;;7.90;4.40;;;;;14.80;99218.00;;;;5073418;28;20203;-78
2021/03/11 06:06:17;;;;;;;5.63;3.88;;;;;14.80;99235.00;;;;5087032;28;20191;-79
2021/03/11 06:08:44;;;;;;;7.28;4.65;;;;;14.80;99233.00;;;;5084223;28;20218;-78
2021/03/11 06:11:14;;;;;;;6.28;4.10;;;;;14.80;99220.00;;;;5084139;28;20259;-79
2021/03/11 06:13:43;;;;;;;4.28;3.38;;;;;14.80;99206.00;;;;5081332;28;20190;-79
2021/03/11 06:16:16;;;;;;;5.75;4.13;;;;;14.80;99201.00;;;;5080945;28;20606;-79
2021/03/11 06:18:43;;;;;;;7.78;4.18;;;;;14.80;99189.00;;;;5082815;28;20191;-79
2021/03/11 06:21:10;;;;;;;5.05;3.45;;;;;14.90;99193.00;;;;5078446;28;20252;-81
2021/03/11 06:23:37;;;;;;;6.70;4.13;;;;;14.90;99199.00;;;;5073321;28;20199;-78
2021/03/11 06:26:05;;;;;;;6.68;4.03;;;;;14.90;99197.00;;;;5076078;28;20707;-78
2021/03/11 06:28:53;;;;;;;5.53;3.50;;;;;14.80;99203.00;;;;5071370;28;20222;-79
2021/03/11 06:31:21;;;;;;;5.03;3.70;;;;;15.00;99205.00;;;;5075801;28;20194;-77
2021/03/11 06:33:49;;;;;;;6.13;3.50;;;;;15.00;99192.00;;;;5070605;28;20198;-78
2021/03/11 06:36:16;;;;;;;7.47;4.10;;;;;15.00;99195.00;;;;5071538;28;20191;-78
2021/03/11 06:38:43;;;;;;;5.07;3.70;;;;;15.00;99199.00;;;;5088091;28;20251;-77
2021/03/11 06:41:11;;;;;;;5.78;3.85;;;;;15.00;99191.00;;;;5088010;28;20194;-76
2021/03/11 06:43:57;;;;;;;5.45;2.97;;;;;14.90;99204.00;;;;5082669;28;20198;-76
2021/03/11 06:46:26;;;;;;;4.82;2.95;;;;;15.10;99183.00;;;;5079611;28;20226;-79
2021/03/11 06:49:06;;;;;;;4.38;3.15;;;;;15.00;99168.00;;;;5089564;28;20316;-77
2021/03/11 06:51:33;;;;;;;3.72;2.90;;;;;15.10;99178.00;;;;5090714;28;20608;-77
2021/03/11 06:54:01;;;;;;;3.83;2.60;;;;;15.10;99181.00;;;;5090632;28;20195;-79
2021/03/11 06:56:29;;;;;;;5.82;2.90;;;;;15.20;99168.00;;;;5088866;28;20198;-78
2021/03/11 06:59:01;;;;;;;4.75;2.47;;;;;15.20;99173.00;;;;5090909;28;20194;-78
2021/03/11 07:01:29;;;;;;;6.47;2.63;;;;;15.30;99168.00;;;;5084627;28;20264;-79
2021/03/11 07:03:58;;;;;;;4.00;2.35;;;;;15.30;99167.00;;;;5071393;28;20195;-76
2021/03/11 07:06:33;;;;;;;4.03;2.97;;;;;15.30;99154.00;;;;5083827;28;20194;-79
2021/03/11 07:09:00;;;;;;;5.72;2.65;;;;;15.40;99164.00;;;;5090329;28;20230;-78
2021/03/11 07:11:29;;;;;;;5.15;2.17;;;;;15.40;99173.00;;;;5083963;28;20199;-79
2021/03/11 07:13:58;;;;;;;4.00;1.92;;;;;15.40;99156.00;;;;5087227;28;20210;-80
2021/03/11 07:16:27;;;;;;;4.55;2.38;;;;;15.50;99161.00;;;;5088467;28;20198;-80
2021/03/11 07:19:12;;;;;;;4.95;2.67;;;;;15.40;99163.00;;;;5087667;28;20206;-78
2021/03/11 07:21:44;;;;;;;7.68;2.45;;;;;15.50;99154.00;;;;5088811;28;20194;-81
2021/03/11 07:24:12;;;;;;;3.72;1.30;;;;;15.60;99156.00;;;;5088319;28;20216;-79
2021/03/11 07:26:55;;;;;;;4.65;1.70;;;;;15.60;99159.00;;;;5084090;28;20214;-78
2021/03/11 07:29:22;;;;;;;5.35;1.58;;;;;15.70;99152.00;;;;5079715;28;20281;-78
2021/03/11 07:31:56;;;;;;;7.35;2.00;;;;;15.70;99157.00;;;;5089075;28;20206;-80
2021/03/11 07:34:26;;;;;;;6.13;1.52;;;;;15.80;99138.00;;;;5090944;28;20190;-78
2021/03/11 07:36:58;;;;;;;4.85;1.73;;;;;15.80;99149.00;;;;5082285;28;20195;-79
2021/03/11 07:39:27;;;;;;;7.45;1.73;;;;;15.80;99156.00;;;;5095531;28;20285;-79
2021/03/11 07:41:56;;;;;;;5.45;1.63;;;;;15.90;99124.00;;;;5095266;28;20236;-79
2021/03/11 07:44:23;;;;;;;7.07;1.73;;;;;15.90;99142.00;;;;5095902;28;20612;-79
2021/03/11 07:46:51;;;;;;;8.10;2.08;;;;;15.90;99142.00;;;;5097724;28;20233;-79
2021/03/11 07:49:19;;;;;;;7.78;1.50;;;;;16.00;99144.00;;;;5093381;28;20202;-79
2021/03/11 07:51:46;;;;;;;10.23;1.67;;;;;16.00;99124.00;;;;5092629;28;20202;-79
2021/03/11 07:54:14;;;;;;;8.70;2.08;;;;;16.00;99137.00;;;;5097638;28;20194;-77
2021/03/11 07:56:41;;;;;;;10.77;1.48;;;;;16.10;99113.00;;;;5092090;28;20199;-79
2021/03/11 07:59:09;;;;;;;6.75;1.45;;;;;16.10;99140.00;;;;5092067;28;20563;-80
2021/03/11 08:01:46;;;;;;;6.22;1.83;;;;;16.10;99131.00;;;;5093645;28;20194;-79
2021/03/11 08:04:18;;;;;;;9.07;1.23;;;;;16.20;99139.00;;;;5093502;28;20197;-79
2021/03/11 08:06:45;;;;;;;8.40;1.70;;;;;16.30;99114.00;;;;5094457;28;20205;-78
2021/03/11 08:09:13;;;;;;;5.97;1.23;;;;;16.30;99137.00;;;;5092386;28;20206;-81
2021/03/11 08:11:41;;;;;;;4.15;1.30;;;;;16.40;99140.00;;;;5092177;28;20210;-79
2021/03/11 08:14:18;;;;;;;8.63;1.50;;;;;16.40;99141.00;;;;5094858;28;20217;-80
2021/03/11 08:16:45;;;;;;;4.38;1.42;;;;;16.50;99119.00;;;;5082348;28;20213;-80
2021/03/11 08:19:49;;;;;;;7.32;1.55;;;;;16.40;99122.00;;;;5085928;28;20210;-80
2021/03/11 08:22:44;;;;;;;7.05;1.48;;;;;16.60;99121.00;;;;5082613;28;20206;-79
2021/03/11 08:25:41;;;;;;;4.28;1.02;;;;;16.50;99134.00;;;;5086176;28;20276;-80
2021/03/11 08:28:36;;;;;;;8.43;1.52;;;;;16.50;99147.00;;;;5079648;28;20653;-80
2021/03/11 08:31:05;;;;;;;5.55;1.40;;;;;16.60;99116.00;;;;5076227;28;20255;-80
2021/03/11 08:33:56;;;;;;;6.50;2.00;;;;;16.60;99126.00;;;;5085156;28;20194;-81
2021/03/11 08:36:38;;;;;;;5.68;1.50;;;;;16.70;99134.00;;;;5085177;28;20199;-80
2021/03/11 08:39:37;;;;;;;6.47;1.75;;;;;16.60;99159.00;;;;5087297;28;20194;-80
2021/03/11 08:42:47;;;;;;;5.18;1.35;;;;;16.60;99139.00;;;;5090269;28;20198;-80
2021/03/11 08:45:34;;;;;;;10.07;2.63;;;;;16.70;99156.00;;;;5083450;28;20202;-81
2021/03/11 08:48:14;;;;;;;10.63;2.60;;;;;16.60;99136.00;;;;5080172;28;20794;-80
2021/03/11 08:50:42;;;;;;;5.90;1.70;;;;;16.70;99152.00;;;;5088604;28;20194;-80
2021/03/11 08:53:10;;;;;;;9.60;2.40;;;;;16.70;99155.00;;;;5082912;28;20199;-80
2021/03/11 08:55:38;;;;;;;10.25;2.38;;;;;16.70;99144.00;;;;5084243;28;20220;-80
2021/03/11 08:58:23;;;;;;;8.10;2.33;;;;;16.70;99144.00;;;;5081912;28;20202;-80
2021/03/11 09:00:57;;;;;;;11.50;2.35;;;;;16.60;99153.00;;;;5090702;28;20679;-79
2021/03/11 09:03:44;;;;;;;12.60;2.28;;;;;16.60;99134.00;;;;5089236;28;20193;-80
2021/03/11 09:06:12;;;;;;;12.38;2.92;;;;;16.80;99127.00;;;;5085503;28;20198;-79
2021/03/11 09:08:48;;;;;;;10.05;2.25;;;;;16.70;99134.00;;;;5088918;28;20218;-80
2021/03/11 09:11:20;;;;;;;12.38;2.25;;;;;16.80;99115.00;;;;5086179;28;20197;-80
2021/03/11 09:13:48;;;;;;;12.80;2.83;;;;;16.90;99132.00;;;;5082330;28;20230;-79
2021/03/11 09:16:14;;;;;;;12.23;3.08;;;;;16.90;99122.00;;;;5088740;28;20206;-79
2021/03/11 09:18:41;;;;;;;5.20;1.52;;;;;16.90;99144.00;;;;5084886;28;20201;-80
2021/03/11 09:21:09;;;;;;;10.50;2.30;;;;;17.00;99124.00;;;;5088296;28;20201;-79
2021/03/11 09:23:38;;;;;;;12.27;2.55;;;;;16.90;99095.00;;;;5084107;28;20194;-79
2021/03/11 09:26:06;;;;;;;10.98;2.47;;;;;17.00;99146.00;;;;5082510;28;20222;-79
2021/03/11 09:28:34;;;;;;;7.88;1.58;;;;;17.00;99108.00;;;;5086347;28;20696;-78
2021/03/11 09:31:01;;;;;;;10.65;1.88;;;;;17.00;99123.00;;;;5090361;28;20206;-81
2021/03/11 09:33:28;;;;;;;14.80;2.30;;;;;17.00;99126.00;;;;5089474;28;20729;-80
2021/03/11 09:35:55;;;;;;;14.95;2.50;;;;;17.00;99117.00;;;;5089969;28;20201;-79
2021/03/11 09:38:24;;;;;;;12.30;3.08;;;;;17.00;99116.00;;;;5088294;28;20209;-79
2021/03/11 09:40:53;;;;;;;16.35;2.67;;;;;17.00;99103.00;;;;5088943;28;20202;-77
2021/03/11 09:43:27;;;;;;;9.25;2.28;;;;;16.90;99133.00;;;;5083600;28;20224;-77
2021/03/11 09:45:56;;;;;;;14.02;2.53;;;;;16.90;99103.00;;;;5083546;28;20202;-78
2021/03/11 09:48:26;;;;;;;10.05;2.55;;;;;16.90;99160.00;;;;5083226;28;20218;-78
2021/03/11 09:51:02;;;;;;;11.98;3.67;;;;;16.90;99136.00;;;;5081090;28;20195;-78
2021/03/11 09:53:38;;;;;;;14.05;2.65;;;;;16.80;99127.00;;;;5087987;28;20438;-78
2021/03/11 09:56:06;;;;;;;14.10;3.70;;;;;16.90;99132.00;;;;5083521;28;20441;-79
2021/03/11 09:58:34;;;;;;;8.90;2.50;;;;;17.00;99138.00;;;;5079551;28;20663;-79
2021/03/11 10:01:02;;;;;;;11.15;2.95;;;;;17.00;99139.00;;;;5079755;28;20206;-77
2021/03/11 10:03:30;;;;;;;9.13;2.30;;;;;17.00;99134.00;;;;5083144;28;20578;-77
2021/03/11 10:05:59;;;;;;;8.95;1.85;;;;;17.00;99154.00;;;;5083929;28;20203;-78
2021/03/11 10:08:31;;;;;;;9.07;2.03;;;;;17.00;99129.00;;;;5085340;28;20244;-77
2021/03/11 10:11:06;;;;;;;17.85;2.40;;;;;16.90;99141.00;;;;5080508;28;20197;-79
2021/03/11 10:13:42;;;;;;;9.82;2.70;;;;;16.90;99176.00;;;;5088776;28;20202;-78
2021/03/11 10:16:10;;;;;;;11.50;2.55;;;;;17.00;99134.00;;;;5081570;28;20201;-76
2021/03/11 10:18:37;;;;;;;14.35;2.53;;;;;17.00;99142.00;;;;5088876;28;20647;-77
2021/03/11 10:21:07;;;;;;;11.10;2.28;;;;;17.00;99135.00;;;;5087495;28;20698;-76
2021/03/11 10:23:34;;;;;;;8.70;1.98;;;;;17.00;99135.00;;;;5087829;28;20198;-77
2021/03/11 10:26:16;;;;;;;11.43;1.83;;;;;17.00;99102.00;;;;5087342;28;20209;-78
2021/03/11 10:28:45;;;;;;;15.50;2.83;;;;;17.00;99124.00;;;;5081560;28;20702;-78
2021/03/11 10:31:13;;;;;;;11.13;2.13;;;;;17.10;99131.00;;;;5077261;28;20240;-77
2021/03/11 10:33:41;;;;;;;10.15;2.20;;;;;17.10;99138.00;;;;5080309;28;20206;-77
2021/03/11 10:36:19;;;;;;;14.60;3.72;;;;;17.00;99141.00;;;;5077411;28;20209;-76
2021/03/11 10:39:07;;;;;;;12.13;2.88;;;;;17.00;99140.00;;;;5075145;28;20276;-77
2021/03/11 10:41:36;;;;;;;8.32;2.10;;;;;17.10;99165.00;;;;5081403;28;20206;-76
2021/03/11 10:44:10;;;;;;;7.80;1.95;;;;;17.10;99153.00;;;;5081352;28;20198;-76
2021/03/11 10:46:37;;;;;;;10.80;2.50;;;;;17.10;99153.00;;;;5082992;28;20313;-78
2021/03/11 10:49:04;;;;;;;11.70;2.10;;;;;17.10;99174.00;;;;5087732;28;20263;-76
2021/03/11 10:51:32;;;;;;;6.45;2.17;;;;;17.10;99175.00;;;;5079780;28;20207;-80
2021/03/11 10:53:59;;;;;;;15.60;2.70;;;;;17.10;99199.00;;;;5082986;28;20206;-77
2021/03/11 10:56:27;;;;;;;11.20;2.78;;;;;17.10;99166.00;;;;5087931;28;20205;-79
2021/03/11 10:59:06;;;;;;;12.15;1.83;;;;;17.00;99162.00;;;;5087755;28;20198;-76
2021/03/11 11:01:35;;;;;;;6.63;2.47;;;;;17.10;99170.00;;;;5088131;28;20191;-79
2021/03/11 11:04:02;;;;;;;10.80;2.70;;;;;17.00;99181.00;;;;5090015;28;20206;-78
2021/03/11 11:06:31;;;;;;;7.43;1.88;;;;;17.00;99172.00;;;;5087315;28;20644;-78
2021/03/11 11:08:58;;;;;;;7.90;2.03;;;;;17.00;99168.00;;;;5092403;28;20250;-77
2021/03/11 11:11:25;;;;;;;13.73;2.92;;;;;17.00;99168.00;;;;5090110;28;20194;-77
2021/03/11 11:13:54;;;;;;;16.48;2.97;;;;;17.00;99159.00;;;;5094804;28;20686;-78
2021/03/11 11:16:20;;;;;;;9.60;2.75;;;;;17.00;99180.00;;;;5091599;28;20197;-78
2021/03/11 11:18:48;;;;;;;12.50;2.78;;;;;17.00;99189.00;;;;5092460;28;20210;-79
2021/03/11 11:21:15;;;;;;;10.07;2.15;;;;;17.00;99192.00;;;;5090742;28;20198;-77
2021/03/11 11:23:42;;;;;;;8.38;2.10;;;;;17.00;99183.00;;;;5091987;28;20560;-78
2021/03/11 11:26:10;;;;;;;9.30;1.98;;;;;17.00;99197.00;;;;5088633;28;20209;-76
2021/03/11 11:28:37;;;;;;;9.32;1.80;;;;;17.00;99207.00;;;;5090184;28;20676;-77
2021/03/11 11:31:04;;;;;;;9.35;2.65;;;;;17.00;99215.00;;;;5093392;28;20194;-79
2021/03/11 11:33:30;;;;;;;12.52;2.22;;;;;17.00;99221.00;;;;5093603;28;20213;-77
2021/03/11 11:35:58;;;;;;;13.02;2.60;;;;;17.10;99218.00;;;;5090040;28;20221;-76
2021/03/11 11:38:25;;;;;;;9.90;2.35;;;;;17.10;99221.00;;;;5088544;28;20295;-76
2021/03/11 11:40:51;;;;;;;14.13;2.50;;;;;17.20;99252.00;;;;5073520;28;20569;-78
2021/03/11 11:43:18;;;;;;;14.18;2.88;;;;;17.20;99253.00;;;;5088273;28;20190;-82
2021/03/11 11:45:45;;;;;;;11.88;3.08;;;;;17.20;99257.00;;;;5079133;28;20216;-79
2021/03/11 11:48:12;;;;;;;14.32;2.75;;;;;17.20;99226.00;;;;5083407;28;20233;-77
2021/03/11 11:50:38;;;;;;;10.75;2.38;;;;;17.20;99263.00;;;;5085468;28;20297;-78
2021/03/11 11:53:06;;;;;;;12.48;2.45;;;;;17.20;99282.00;;;;5084921;28;20198;-79
2021/03/11 11:55:32;;;;;;;17.92;3.00;;;;;17.30;99213.00;;;;5076066;28;20207;-78
2021/03/11 11:57:59;;;;;;;12.77;2.08;;;;;17.30;99290.00;;;;5085012;28;20700;-78
2021/03/11 12:00:27;;;;;;;6.97;2.38;;;;;17.30;99290.00;;;;5078706;28;20187;-77
2021/03/11 12:02:53;;;;;;;17.88;2.88;;;;;17.40;99287.00;;;;5083392;28;20202;-78
2021/03/11 12:05:20;;;;;;;11.60;3.65;;;;;17.40;99312.00;;;;5085119;28;20268;-78
2021/03/11 12:07:47;;;;;;;12.80;2.65;;;;;17.40;99315.00;;;;5085407;28;20230;-79
2021/03/11 12:10:17;;;;;;;11.57;2.60;;;;;17.40;99292.00;;;;5091983;28;20201;-78
2021/03/11 12:12:43;;;;;;;9.43;2.75;;;;;17.40;99311.00;;;;5089015;28;20240;-76
2021/03/11 12:15:10;;;;;;;15.48;2.60;;;;;17.40;99297.00;;;;5091794;28;20202;-77
2021/03/11 12:17:37;;;;;;;12.23;2.65;;;;;17.50;99326.00;;;;5087636;28;20191;-77
2021/03/11 12:20:05;;;;;;;18.25;3.83;;;;;17.50;99317.00;;;;5089844;28;20195;-77
2021/03/11 12:22:32;;;;;;;9.23;2.67;;;;;17.50;99317.00;;;;5089248;28;20260;-78
2021/03/11 12:24:59;;;;;;;11.57;3.17;;;;;17.50;99353.00;;;;5087288;28;20194;-77
2021/03/11 12:27:26;;;;;;;12.02;2.55;;;;;17.50;99342.00;;;;5094321;28;20222;-76